Portada
METAR-TAF:

METAR-TAF

Aeroports :

Sherbrooke, Quebec, Canadà

latitud: 45-24N, longitud: 071-53W, altitud: 170 m

Observació

L'informe es va fer fa 58 minuts, a les 19:00 UTC
Vent 8 kt del Oest amb ràfegues de 17 kt
Temperatura 16°C
Humitat 68%
Pressió 1017 hPa
Visibilitat: 14.5 km
Núvols disperses a una alçada de 4300 ft

METAR: CYSC 151900Z AUTO 26008G17KT 9SM SCT043 16/10 A3003 RMK SLP174 DENSITY ALT 900FT

Hora: 15:58 (19:58 UTC)

Pronòstic

L'informe es va fer fa 2 hores i 5 minuts, a les 17:53 UTC
Pronòstic vàlid del 15 a les 18 UTC al 16 a les 03 UTC
Vent 8 kt del Oest amb ràfegues de 18 kt
Visibilitat: 10 km
Cel ennuvolat a una alçada de 4000 ft
Evolucionant progressivament
l' 15 a les 22 UTC al 15 a les 23 UTC
Vent 8 kt del Oest

TAF: CYSC 151753Z 1518/1603 27008G18KT P6SM BKN040 BECMG 1522/1523 27008KT RMK FCST BASED ON AUTO OBS. NXT FCST BY 160000Z

Observacions i pronòstics meteorològics de més de 4000 aeroports (METAR i TAF).

Les estacions disponibles són els punts grocs i vermells al mapa.

Posi el ratolí al punt desitjat per veure el nom de l'estació.

Feu clic per veure les observacions i els pronòstics meteorològics.

Per canviar el mapa: feu clic els botons verds amb una creu de color negre per apropar; al botó verd amb un guió per allunyar la imatge; o en les fletxes verdes per a mapes adjacents.


METAR-TAF: